Olympia, Washington
Current Conditions -  °F | °C
As of 11:54 AM on Tuesday 21 Oct 2014 (Local Time) from KOLM Reporting Station
Light Rain Light Rain  
Wind Chill: 56°   Ceiling: 6000
Heat Index: 56°   Visibility: 10mi
Dew Point: 51°   Wind: 16mph
Humidity: 84%   Direction: 190°S
Pressure: 29.94"   Gusts: 23mph
Location:  47.04°N, 122.89°W
Report Text: KOLM 211854Z 19014G20KT 10SM -RA FEW017 OVC060 13/11 A2994 RMK AO2 PK WND 18026/1815 RAB42 SLP138 P0000 T01330106
Loading
Personal Weather Stations






























Interactive Weather Map
Tropical Storm Tracking
New forecast layout! Learn more

10-Day Weather Forecast

Advertisements
Track Severe Weather on mobile